sensor_id;sensor_type;location;lat;lon;timestamp;pressure;altitude;pressure_sealevel;temperature;humidity
64080;BME280;51042;49.696;10.808;2024-03-22T00:00:29;99528.97;;;4.41;100.00
64080;BME280;51042;49.696;10.808;2024-03-22T00:02:54;99525.44;;;4.37;100.00
64080;BME280;51042;49.696;10.808;2024-03-22T00:05:20;99526.97;;;4.35;100.00
64080;BME280;51042;49.696;10.808;2024-03-22T00:07:46;99522.13;;;4.25;100.00
64080;BME280;51042;49.696;10.808;2024-03-22T00:10:12;99530.28;;;4.25;100.00
64080;BME280;51042;49.696;10.808;2024-03-22T00:12:38;99512.47;;;4.27;100.00
64080;BME280;51042;49.696;10.808;2024-03-22T00:15:04;99516.19;;;4.16;100.00
64080;BME280;51042;49.696;10.808;2024-03-22T00:17:30;99507.59;;;4.14;100.00
64080;BME280;51042;49.696;10.808;2024-03-22T00:19:56;99511.06;;;4.10;100.00
64080;BME280;51042;49.696;10.808;2024-03-22T00:22:21;99516.41;;;4.07;100.00
64080;BME280;51042;49.696;10.808;2024-03-22T00:24:46;99519.91;;;4.07;100.00
64080;BME280;51042;49.696;10.808;2024-03-22T00:27:12;99512.19;;;4.09;100.00
64080;BME280;51042;49.696;10.808;2024-03-22T00:29:37;99514.50;;;4.07;100.00
64080;BME280;51042;49.696;10.808;2024-03-22T00:32:03;99515.28;;;4.08;100.00
64080;BME280;51042;49.696;10.808;2024-03-22T00:34:28;99520.66;;;4.04;100.00
64080;BME280;51042;49.696;10.808;2024-03-22T00:36:54;99510.09;;;3.99;100.00
64080;BME280;51042;49.696;10.808;2024-03-22T00:39:19;99512.31;;;3.94;100.00
64080;BME280;51042;49.696;10.808;2024-03-22T00:41:44;99514.94;;;3.87;100.00
64080;BME280;51042;49.696;10.808;2024-03-22T00:44:10;99515.31;;;3.85;100.00
64080;BME280;51042;49.696;10.808;2024-03-22T00:46:35;99511.75;;;3.81;100.00
64080;BME280;51042;49.696;10.808;2024-03-22T00:49:01;99508.13;;;3.74;100.00
64080;BME280;51042;49.696;10.808;2024-03-22T00:51:26;99504.53;;;3.69;100.00
64080;BME280;51042;49.696;10.808;2024-03-22T00:53:52;99504.53;;;3.69;100.00
64080;BME280;51042;49.696;10.808;2024-03-22T00:56:17;99515.41;;;3.69;100.00
64080;BME280;51042;49.696;10.808;2024-03-22T00:58:43;99509.13;;;3.65;100.00
64080;BME280;51042;49.696;10.808;2024-03-22T01:01:08;99505.63;;;3.65;100.00
64080;BME280;51042;49.696;10.808;2024-03-22T01:03:33;99506.00;;;3.63;100.00
64080;BME280;51042;49.696;10.808;2024-03-22T01:05:59;99506.78;;;3.64;100.00
64080;BME280;51042;49.696;10.808;2024-03-22T01:08:24;99507.56;;;3.64;100.00
64080;BME280;51042;49.696;10.808;2024-03-22T01:10:50;99508.44;;;3.68;100.00
64080;BME280;51042;49.696;10.808;2024-03-22T01:13:16;99512.34;;;3.71;100.00
64080;BME280;51042;49.696;10.808;2024-03-22T01:15:41;99512.28;;;3.67;100.00
64080;BME280;51042;49.696;10.808;2024-03-22T01:18:06;99512.19;;;3.64;100.00
64080;BME280;51042;49.696;10.808;2024-03-22T01:20:32;99504.00;;;3.60;100.00
64080;BME280;51042;49.696;10.808;2024-03-22T01:22:59;99500.38;;;3.53;100.00
64080;BME280;51042;49.696;10.808;2024-03-22T01:25:24;99501.03;;;3.46;100.00
64080;BME280;51042;49.696;10.808;2024-03-22T01:27:50;99493.63;;;3.43;100.00
64080;BME280;51042;49.696;10.808;2024-03-22T01:30:15;99489.28;;;3.39;100.00
64080;BME280;51042;49.696;10.808;2024-03-22T01:32:40;99483.00;;;3.35;100.00
64080;BME280;51042;49.696;10.808;2024-03-22T01:35:06;99472.78;;;3.28;100.00
64080;BME280;51042;49.696;10.808;2024-03-22T01:37:31;99476.59;;;3.23;100.00
64080;BME280;51042;49.696;10.808;2024-03-22T01:39:56;99473.34;;;3.14;100.00
64080;BME280;51042;49.696;10.808;2024-03-22T01:42:22;99467.41;;;3.09;100.00
64080;BME280;51042;49.696;10.808;2024-03-22T01:44:48;99462.34;;;3.07;100.00
64080;BME280;51042;49.696;10.808;2024-03-22T01:47:14;99471.19;;;3.04;100.00
64080;BME280;51042;49.696;10.808;2024-03-22T01:49:40;99475.75;;;3.00;100.00
64080;BME280;51042;49.696;10.808;2024-03-22T01:52:05;99464.13;;;3.00;100.00
64080;BME280;51042;49.696;10.808;2024-03-22T01:54:31;99471.47;;;2.99;100.00
64080;BME280;51042;49.696;10.808;2024-03-22T01:56:56;99464.44;;;2.95;100.00
64080;BME280;51042;49.696;10.808;2024-03-22T01:59:21;99466.34;;;2.94;100.00
64080;BME280;51042;49.696;10.808;2024-03-22T02:01:47;99469.78;;;2.91;100.00
64080;BME280;51042;49.696;10.808;2024-03-22T02:04:13;99457.28;;;2.86;100.00
64080;BME280;51042;49.696;10.808;2024-03-22T02:06:39;99458.38;;;2.82;100.00
64080;BME280;51042;49.696;10.808;2024-03-22T02:09:04;99455.59;;;2.78;100.00
64080;BME280;51042;49.696;10.808;2024-03-22T02:11:30;99463.28;;;2.76;100.00
64080;BME280;51042;49.696;10.808;2024-03-22T02:13:56;99470.97;;;2.74;100.00
64080;BME280;51042;49.696;10.808;2024-03-22T02:16:22;99465.00;;;2.65;100.00
64080;BME280;51042;49.696;10.808;2024-03-22T02:18:47;99455.94;;;2.58;100.00
64080;BME280;51042;49.696;10.808;2024-03-22T02:21:13;99456.22;;;2.53;100.00
64080;BME280;51042;49.696;10.808;2024-03-22T02:23:38;99450.22;;;2.43;100.00
64080;BME280;51042;49.696;10.808;2024-03-22T02:26:05;99444.44;;;2.45;100.00
64080;BME280;51042;49.696;10.808;2024-03-22T02:28:31;99453.28;;;2.42;100.00
64080;BME280;51042;49.696;10.808;2024-03-22T02:30:58;99443.16;;;2.39;100.00
64080;BME280;51042;49.696;10.808;2024-03-22T02:33:24;99439.25;;;2.36;100.00
64080;BME280;51042;49.696;10.808;2024-03-22T02:35:50;99442.75;;;2.37;100.00
64080;BME280;51042;49.696;10.808;2024-03-22T02:38:16;99436.88;;;2.35;100.00
64080;BME280;51042;49.696;10.808;2024-03-22T02:40:49;99434.53;;;2.33;100.00
64080;BME280;51042;49.696;10.808;2024-03-22T02:43:15;99425.59;;;2.33;100.00
64080;BME280;51042;49.696;10.808;2024-03-22T02:45:43;99426.34;;;2.30;100.00
64080;BME280;51042;49.696;10.808;2024-03-22T02:48:09;99428.25;;;2.29;100.00
64080;BME280;51042;49.696;10.808;2024-03-22T02:50:34;99423.97;;;2.28;100.00
64080;BME280;51042;49.696;10.808;2024-03-22T02:53:03;99418.84;;;2.23;100.00
64080;BME280;51042;49.696;10.808;2024-03-22T02:55:29;99412.56;;;2.19;100.00
64080;BME280;51042;49.696;10.808;2024-03-22T02:57:55;99406.28;;;2.15;100.00
64080;BME280;51042;49.696;10.808;2024-03-22T03:00:21;99404.63;;;2.11;100.00
64080;BME280;51042;49.696;10.808;2024-03-22T03:02:47;99406.56;;;2.10;100.00
64080;BME280;51042;49.696;10.808;2024-03-22T03:05:12;99403.94;;;2.14;100.00
64080;BME280;51042;49.696;10.808;2024-03-22T03:07:38;99402.38;;;2.13;100.00
64080;BME280;51042;49.696;10.808;2024-03-22T03:10:03;99407.97;;;2.04;100.00
64080;BME280;51042;49.696;10.808;2024-03-22T03:12:29;99410.69;;;2.04;100.00
64080;BME280;51042;49.696;10.808;2024-03-22T03:14:54;99399.06;;;2.03;100.00
64080;BME280;51042;49.696;10.808;2024-03-22T03:17:19;99402.66;;;2.08;100.00
64080;BME280;51042;49.696;10.808;2024-03-22T03:19:45;99396.88;;;2.09;100.00
64080;BME280;51042;49.696;10.808;2024-03-22T03:22:10;99403.00;;;2.06;100.00
64080;BME280;51042;49.696;10.808;2024-03-22T03:24:35;99396.78;;;2.05;100.00
64080;BME280;51042;49.696;10.808;2024-03-22T03:27:00;99401.06;;;2.07;100.00
64080;BME280;51042;49.696;10.808;2024-03-22T03:29:27;99396.88;;;2.09;100.00
64080;BME280;51042;49.696;10.808;2024-03-22T03:31:52;99403.06;;;2.10;100.00
64080;BME280;51042;49.696;10.808;2024-03-22T03:34:18;99408.47;;;2.10;100.00
64080;BME280;51042;49.696;10.808;2024-03-22T03:36:44;99398.78;;;2.09;100.00
64080;BME280;51042;49.696;10.808;2024-03-22T03:39:10;99400.72;;;2.08;100.00
64080;BME280;51042;49.696;10.808;2024-03-22T03:41:35;99398.03;;;2.08;100.00
64080;BME280;51042;49.696;10.808;2024-03-22T03:44:00;99405.06;;;2.13;100.00
64080;BME280;51042;49.696;10.808;2024-03-22T03:46:26;99405.88;;;2.13;100.00
64080;BME280;51042;49.696;10.808;2024-03-22T03:48:51;99406.16;;;2.08;100.00
64080;BME280;51042;49.696;10.808;2024-03-22T03:51:16;99403.69;;;2.03;100.00
64080;BME280;51042;49.696;10.808;2024-03-22T03:53:42;99399.44;;;2.02;100.00
64080;BME280;51042;49.696;10.808;2024-03-22T03:56:07;99399.69;;;1.97;100.00
64080;BME280;51042;49.696;10.808;2024-03-22T03:58:32;99405.09;;;1.97;100.00
64080;BME280;51042;49.696;10.808;2024-03-22T04:00:57;99397.78;;;1.97;100.00
64080;BME280;51042;49.696;10.808;2024-03-22T04:03:23;99406.69;;;1.98;100.00
64080;BME280;51042;49.696;10.808;2024-03-22T04:05:58;99403.19;;;1.97;100.00
64080;BME280;51042;49.696;10.808;2024-03-22T04:08:24;99405.63;;;2.02;100.00
64080;BME280;51042;49.696;10.808;2024-03-22T04:10:51;99398.56;;;1.98;100.00
64080;BME280;51042;49.696;10.808;2024-03-22T04:13:17;99396.97;;;1.97;100.00
64080;BME280;51042;49.696;10.808;2024-03-22T04:15:42;99393.75;;;1.91;100.00
64080;BME280;51042;49.696;10.808;2024-03-22T04:18:08;99394.13;;;1.90;100.00
64080;BME280;51042;49.696;10.808;2024-03-22T04:20:33;99389.50;;;1.90;100.00
64080;BME280;51042;49.696;10.808;2024-03-22T04:22:58;99391.00;;;1.88;100.00
64080;BME280;51042;49.696;10.808;2024-03-22T04:25:24;99401.03;;;1.87;100.00
64080;BME280;51042;49.696;10.808;2024-03-22T04:27:49;99399.09;;;1.88;100.00
64080;BME280;51042;49.696;10.808;2024-03-22T04:30:14;99406.38;;;1.84;100.00
64080;BME280;51042;49.696;10.808;2024-03-22T04:32:39;99399.66;;;1.78;100.00
64080;BME280;51042;49.696;10.808;2024-03-22T04:35:05;99403.78;;;1.72;100.00
64080;BME280;51042;49.696;10.808;2024-03-22T04:37:30;99403.78;;;1.72;100.00
64080;BME280;51042;49.696;10.808;2024-03-22T04:39:56;99386.31;;;1.69;100.00
64080;BME280;51042;49.696;10.808;2024-03-22T04:42:21;99391.28;;;1.67;100.00
64080;BME280;51042;49.696;10.808;2024-03-22T04:44:46;99400.91;;;1.64;100.00
64080;BME280;51042;49.696;10.808;2024-03-22T04:47:11;99391.91;;;1.60;100.00
64080;BME280;51042;49.696;10.808;2024-03-22T04:49:37;99389.91;;;1.57;100.00
64080;BME280;51042;49.696;10.808;2024-03-22T04:52:02;99393.31;;;1.54;100.00
64080;BME280;51042;49.696;10.808;2024-03-22T04:54:27;99389.38;;;1.52;100.00
64080;BME280;51042;49.696;10.808;2024-03-22T04:56:52;99401.06;;;1.56;100.00
64080;BME280;51042;49.696;10.808;2024-03-22T04:59:18;99402.97;;;1.55;100.00
64080;BME280;51042;49.696;10.808;2024-03-22T05:01:43;99397.84;;;1.50;100.00
64080;BME280;51042;49.696;10.808;2024-03-22T05:04:09;99395.13;;;1.50;100.00
64080;BME280;51042;49.696;10.808;2024-03-22T05:06:34;99387.28;;;1.45;100.00
64080;BME280;51042;49.696;10.808;2024-03-22T05:09:00;99380.81;;;1.50;100.00
64080;BME280;51042;49.696;10.808;2024-03-22T05:11:25;99383.97;;;1.52;100.00
64080;BME280;51042;49.696;10.808;2024-03-22T05:13:51;99381.00;;;1.57;100.00
64080;BME280;51042;49.696;10.808;2024-03-22T05:16:16;99373.31;;;1.59;100.00
64080;BME280;51042;49.696;10.808;2024-03-22T05:18:41;99369.56;;;1.63;100.00
64080;BME280;51042;49.696;10.808;2024-03-22T05:21:08;99371.47;;;1.63;100.00
64080;BME280;51042;49.696;10.808;2024-03-22T05:23:33;99364.66;;;1.69;100.00
64080;BME280;51042;49.696;10.808;2024-03-22T05:25:59;99360.66;;;1.79;100.00
64080;BME280;51042;49.696;10.808;2024-03-22T05:28:24;99366.28;;;1.89;100.00
64080;BME280;51042;49.696;10.808;2024-03-22T05:30:50;99363.94;;;1.88;100.00
64080;BME280;51042;49.696;10.808;2024-03-22T05:33:15;99359.38;;;1.92;100.00
64080;BME280;51042;49.696;10.808;2024-03-22T05:35:40;99365.72;;;1.99;100.00
64080;BME280;51042;49.696;10.808;2024-03-22T05:38:06;99360.81;;;2.05;100.00
64080;BME280;51042;49.696;10.808;2024-03-22T05:40:31;99354.34;;;2.10;100.00
64080;BME280;51042;49.696;10.808;2024-03-22T05:42:57;99355.13;;;2.10;100.00
64080;BME280;51042;49.696;10.808;2024-03-22T05:45:22;99359.41;;;2.11;100.00
64080;BME280;51042;49.696;10.808;2024-03-22T05:47:47;99360.19;;;2.12;100.00
64080;BME280;51042;49.696;10.808;2024-03-22T05:50:13;99354.50;;;2.17;100.00
64080;BME280;51042;49.696;10.808;2024-03-22T05:52:39;99354.28;;;2.25;100.00
64080;BME280;51042;49.696;10.808;2024-03-22T05:55:04;99342.03;;;2.31;100.00
64080;BME280;51042;49.696;10.808;2024-03-22T05:57:30;99342.44;;;2.33;100.00
64080;BME280;51042;49.696;10.808;2024-03-22T05:59:55;99335.97;;;2.38;100.00
64080;BME280;51042;49.696;10.808;2024-03-22T06:02:21;99330.03;;;2.52;100.00
64080;BME280;51042;49.696;10.808;2024-03-22T06:04:47;99319.97;;;2.71;100.00
64080;BME280;51042;49.696;10.808;2024-03-22T06:07:12;99322.31;;;2.96;100.00
64080;BME280;51042;49.696;10.808;2024-03-22T06:09:39;99317.31;;;3.20;100.00
64080;BME280;51042;49.696;10.808;2024-03-22T06:12:22;99311.78;;;3.40;100.00
64080;BME280;51042;49.696;10.808;2024-03-22T06:14:47;99306.22;;;3.55;100.00
64080;BME280;51042;49.696;10.808;2024-03-22T06:17:13;99304.88;;;3.68;100.00
64080;BME280;51042;49.696;10.808;2024-03-22T06:19:39;99301.53;;;3.82;100.00
64080;BME280;51042;49.696;10.808;2024-03-22T06:22:05;99292.69;;;3.85;100.00
64080;BME280;51042;49.696;10.808;2024-03-22T06:24:30;99289.59;;;3.87;100.00
64080;BME280;51042;49.696;10.808;2024-03-22T06:26:55;99288.53;;;3.95;100.00
64080;BME280;51042;49.696;10.808;2024-03-22T06:29:20;99278.97;;;4.04;100.00
64080;BME280;51042;49.696;10.808;2024-03-22T06:31:46;99273.19;;;4.09;100.00
64080;BME280;51042;49.696;10.808;2024-03-22T06:34:12;99260.31;;;4.03;100.00
64080;BME280;51042;49.696;10.808;2024-03-22T06:36:37;99256.72;;;3.95;100.00
64080;BME280;51042;49.696;10.808;2024-03-22T06:39:02;99249.59;;;3.84;100.00
64080;BME280;51042;49.696;10.808;2024-03-22T06:41:32;99253.66;;;3.97;100.00
64080;BME280;51042;49.696;10.808;2024-03-22T06:43:59;99249.16;;;4.11;100.00
64080;BME280;51042;49.696;10.808;2024-03-22T06:46:24;99255.41;;;4.16;100.00
64080;BME280;51042;49.696;10.808;2024-03-22T06:48:49;99253.63;;;4.30;100.00
64080;BME280;51042;49.696;10.808;2024-03-22T06:51:15;99257.63;;;4.40;100.00
64080;BME280;51042;49.696;10.808;2024-03-22T06:53:40;99249.16;;;4.48;100.00
64080;BME280;51042;49.696;10.808;2024-03-22T06:56:06;99236.44;;;4.56;100.00
64080;BME280;51042;49.696;10.808;2024-03-22T06:58:33;99229.88;;;4.61;100.00
64080;BME280;51042;49.696;10.808;2024-03-22T07:00:59;99231.44;;;4.62;100.00
64080;BME280;51042;49.696;10.808;2024-03-22T07:03:24;99226.88;;;4.73;100.00
64080;BME280;51042;49.696;10.808;2024-03-22T07:05:49;99226.22;;;4.90;100.00
64080;BME280;51042;49.696;10.808;2024-03-22T07:08:15;99227.50;;;5.00;100.00
64080;BME280;51042;49.696;10.808;2024-03-22T07:10:40;99218.63;;;5.10;100.00
64080;BME280;51042;49.696;10.808;2024-03-22T07:13:06;99213.59;;;5.15;100.00
64080;BME280;51042;49.696;10.808;2024-03-22T07:15:31;99199.94;;;5.08;100.00
64080;BME280;51042;49.696;10.808;2024-03-22T07:17:57;99199.94;;;5.08;100.00
64080;BME280;51042;49.696;10.808;2024-03-22T07:20:22;99208.63;;;5.28;100.00
64080;BME280;51042;49.696;10.808;2024-03-22T07:22:48;99206.81;;;5.50;100.00
64080;BME280;51042;49.696;10.808;2024-03-22T07:25:13;99193.94;;;5.40;100.00
64080;BME280;51042;49.696;10.808;2024-03-22T07:27:38;99198.59;;;5.43;100.00
64080;BME280;51042;49.696;10.808;2024-03-22T07:30:04;99197.19;;;5.70;100.00
64080;BME280;51042;49.696;10.808;2024-03-22T07:32:30;99198.88;;;6.03;100.00
64080;BME280;51042;49.696;10.808;2024-03-22T07:34:55;99194.63;;;6.12;100.00
64080;BME280;51042;49.696;10.808;2024-03-22T07:37:20;99177.47;;;6.08;100.00
64080;BME280;51042;49.696;10.808;2024-03-22T07:39:46;99177.88;;;6.00;100.00
64080;BME280;51042;49.696;10.808;2024-03-22T07:42:11;99173.97;;;6.08;100.00
64080;BME280;51042;49.696;10.808;2024-03-22T07:44:36;99161.97;;;6.20;100.00
64080;BME280;51042;49.696;10.808;2024-03-22T07:47:02;99170.94;;;6.41;100.00
64080;BME280;51042;49.696;10.808;2024-03-22T07:49:27;99164.72;;;6.66;100.00
64080;BME280;51042;49.696;10.808;2024-03-22T07:51:52;99160.03;;;6.80;100.00
64080;BME280;51042;49.696;10.808;2024-03-22T07:54:18;99157.28;;;6.98;100.00
64080;BME280;51042;49.696;10.808;2024-03-22T07:56:43;99157.66;;;7.07;100.00
64080;BME280;51042;49.696;10.808;2024-03-22T07:59:09;99157.97;;;7.34;100.00
64080;BME280;51042;49.696;10.808;2024-03-22T08:01:34;99148.94;;;7.58;100.00
64080;BME280;51042;49.696;10.808;2024-03-22T08:03:59;99137.06;;;7.93;100.00
64080;BME280;51042;49.696;10.808;2024-03-22T08:06:24;99138.19;;;8.03;100.00
64080;BME280;51042;49.696;10.808;2024-03-22T08:08:50;99124.06;;;8.11;100.00
64080;BME280;51042;49.696;10.808;2024-03-22T08:11:15;99117.03;;;8.14;100.00
64080;BME280;51042;49.696;10.808;2024-03-22T08:13:40;99110.34;;;8.18;100.00
64080;BME280;51042;49.696;10.808;2024-03-22T08:16:06;99090.44;;;8.18;100.00
64080;BME280;51042;49.696;10.808;2024-03-22T08:18:31;99102.44;;;7.72;100.00
64080;BME280;51042;49.696;10.808;2024-03-22T08:20:57;99093.59;;;7.44;100.00
64080;BME280;51042;49.696;10.808;2024-03-22T08:23:24;99101.69;;;7.68;100.00
64080;BME280;51042;49.696;10.808;2024-03-22T08:25:49;99105.69;;;8.15;100.00
64080;BME280;51042;49.696;10.808;2024-03-22T08:28:14;99093.91;;;8.26;100.00
64080;BME280;51042;49.696;10.808;2024-03-22T08:30:40;99086.41;;;8.81;100.00
64080;BME280;51042;49.696;10.808;2024-03-22T08:33:07;99074.25;;;9.20;100.00
64080;BME280;51042;49.696;10.808;2024-03-22T08:35:32;99059.31;;;9.28;100.00
64080;BME280;51042;49.696;10.808;2024-03-22T08:37:57;99050.53;;;9.06;100.00
64080;BME280;51042;49.696;10.808;2024-03-22T08:40:23;99033.25;;;9.13;100.00
64080;BME280;51042;49.696;10.808;2024-03-22T08:42:49;99043.88;;;9.41;100.00
64080;BME280;51042;49.696;10.808;2024-03-22T08:45:14;99031.72;;;9.96;100.00
64080;BME280;51042;49.696;10.808;2024-03-22T08:47:41;99013.44;;;10.39;100.00
64080;BME280;51042;49.696;10.808;2024-03-22T08:50:07;98997.53;;;10.50;100.00
64080;BME280;51042;49.696;10.808;2024-03-22T08:52:32;98997.31;;;10.84;100.00
64080;BME280;51042;49.696;10.808;2024-03-22T08:54:59;98993.94;;;11.32;100.00
64080;BME280;51042;49.696;10.808;2024-03-22T08:57:24;98977.38;;;11.56;100.00
64080;BME280;51042;49.696;10.808;2024-03-22T08:59:49;98966.94;;;11.11;100.00
64080;BME280;51042;49.696;10.808;2024-03-22T09:02:15;98962.66;;;11.46;100.00
64080;BME280;51042;49.696;10.808;2024-03-22T09:04:41;98951.19;;;12.00;100.00
64080;BME280;51042;49.696;10.808;2024-03-22T09:07:06;98938.25;;;12.29;100.00
64080;BME280;51042;49.696;10.808;2024-03-22T09:09:32;98934.97;;;12.34;100.00
64080;BME280;51042;49.696;10.808;2024-03-22T09:11:57;98923.81;;;12.83;100.00
64080;BME280;51042;49.696;10.808;2024-03-22T09:14:22;98910.38;;;13.52;100.00
64080;BME280;51042;49.696;10.808;2024-03-22T09:16:48;98902.91;;;13.86;100.00
64080;BME280;51042;49.696;10.808;2024-03-22T09:19:13;98897.81;;;13.98;100.00
64080;BME280;51042;49.696;10.808;2024-03-22T09:21:38;98892.28;;;14.32;100.00
64080;BME280;51042;49.696;10.808;2024-03-22T09:24:03;98870.88;;;15.10;100.00
64080;BME280;51042;49.696;10.808;2024-03-22T09:26:29;98867.31;;;14.79;100.00
64080;BME280;51042;49.696;10.808;2024-03-22T09:28:54;98871.13;;;15.03;100.00
64080;BME280;51042;49.696;10.808;2024-03-22T09:31:20;98861.31;;;14.72;100.00
64080;BME280;51042;49.696;10.808;2024-03-22T09:33:45;98862.66;;;14.98;100.00
64080;BME280;51042;49.696;10.808;2024-03-22T09:36:10;98857.06;;;15.20;100.00
64080;BME280;51042;49.696;10.808;2024-03-22T09:38:35;98848.16;;;15.56;100.00
64080;BME280;51042;49.696;10.808;2024-03-22T09:41:01;98844.81;;;15.61;100.00
64080;BME280;51042;49.696;10.808;2024-03-22T09:43:30;98838.97;;;15.86;100.00
64080;BME280;51042;49.696;10.808;2024-03-22T09:45:57;98826.38;;;15.94;100.00
64080;BME280;51042;49.696;10.808;2024-03-22T09:48:23;98822.00;;;15.47;100.00
64080;BME280;51042;49.696;10.808;2024-03-22T09:50:49;98821.44;;;15.22;100.00
64080;BME280;51042;49.696;10.808;2024-03-22T09:53:21;98818.56;;;15.34;100.00
64080;BME280;51042;49.696;10.808;2024-03-22T09:55:47;98818.13;;;15.45;100.00
64080;BME280;51042;49.696;10.808;2024-03-22T09:58:16;98816.66;;;15.53;100.00
64080;BME280;51042;49.696;10.808;2024-03-22T10:00:42;98809.38;;;15.46;100.00
64080;BME280;51042;49.696;10.808;2024-03-22T10:03:07;98808.84;;;15.61;100.00
64080;BME280;51042;49.696;10.808;2024-03-22T10:05:38;98795.75;;;15.79;100.00
64080;BME280;51042;49.696;10.808;2024-03-22T10:08:04;98790.25;;;15.70;100.00
64080;BME280;51042;49.696;10.808;2024-03-22T10:10:32;98789.94;;;15.77;100.00
64080;BME280;51042;49.696;10.808;2024-03-22T10:13:01;98779.31;;;15.94;100.00
64080;BME280;51042;49.696;10.808;2024-03-22T10:15:28;98778.09;;;15.95;100.00
64080;BME280;51042;49.696;10.808;2024-03-22T10:17:56;98768.25;;;15.76;100.00
64080;BME280;51042;49.696;10.808;2024-03-22T10:20:21;98760.34;;;15.38;100.00
64080;BME280;51042;49.696;10.808;2024-03-22T10:22:57;98761.16;;;15.57;100.00
64080;BME280;51042;49.696;10.808;2024-03-22T10:25:25;98750.09;;;15.57;100.00
64080;BME280;51042;49.696;10.808;2024-03-22T10:27:53;98753.66;;;15.66;100.00
64080;BME280;51042;49.696;10.808;2024-03-22T10:30:19;98744.28;;;16.51;100.00
64080;BME280;51042;49.696;10.808;2024-03-22T10:32:44;98729.56;;;17.20;100.00
64080;BME280;51042;49.696;10.808;2024-03-22T10:35:13;98721.13;;;17.62;100.00
64080;BME280;51042;49.696;10.808;2024-03-22T10:37:39;98709.47;;;17.25;100.00
64080;BME280;51042;49.696;10.808;2024-03-22T10:40:05;98711.72;;;17.36;100.00
64080;BME280;51042;49.696;10.808;2024-03-22T10:42:38;98705.69;;;17.37;100.00
64080;BME280;51042;49.696;10.808;2024-03-22T10:45:12;98706.28;;;17.41;100.00
64080;BME280;51042;49.696;10.808;2024-03-22T10:47:37;98706.81;;;17.31;100.00
64080;BME280;51042;49.696;10.808;2024-03-22T10:50:07;98708.34;;;17.08;100.00
64080;BME280;51042;49.696;10.808;2024-03-22T10:52:41;98697.50;;;16.95;100.00
64080;BME280;51042;49.696;10.808;2024-03-22T10:55:34;98702.78;;;16.84;100.00
64080;BME280;51042;49.696;10.808;2024-03-22T10:57:59;98692.16;;;16.83;100.00
64080;BME280;51042;49.696;10.808;2024-03-22T11:00:28;98693.91;;;17.04;100.00
64080;BME280;51042;49.696;10.808;2024-03-22T11:02:54;98679.63;;;17.59;100.00
64080;BME280;51042;49.696;10.808;2024-03-22T11:05:20;98679.91;;;17.99;100.00
64080;BME280;51042;49.696;10.808;2024-03-22T11:07:46;98667.75;;;18.11;100.00
64080;BME280;51042;49.696;10.808;2024-03-22T11:10:11;98664.75;;;18.44;100.00
64080;BME280;51042;49.696;10.808;2024-03-22T11:12:37;98654.03;;;18.87;100.00
64080;BME280;51042;49.696;10.808;2024-03-22T11:15:06;98643.84;;;19.44;100.00
64080;BME280;51042;49.696;10.808;2024-03-22T11:17:31;98646.94;;;19.06;100.00
64080;BME280;51042;49.696;10.808;2024-03-22T11:19:57;98656.41;;;18.59;100.00
64080;BME280;51042;49.696;10.808;2024-03-22T11:22:22;98648.34;;;18.46;100.00
64080;BME280;51042;49.696;10.808;2024-03-22T11:24:47;98642.28;;;18.48;100.00
64080;BME280;51042;49.696;10.808;2024-03-22T11:27:13;98629.34;;;18.59;100.00
64080;BME280;51042;49.696;10.808;2024-03-22T11:29:39;98633.78;;;18.86;100.00
64080;BME280;51042;49.696;10.808;2024-03-22T11:32:06;98621.06;;;18.80;100.00
64080;BME280;51042;49.696;10.808;2024-03-22T11:34:34;98623.06;;;18.79;100.00
64080;BME280;51042;49.696;10.808;2024-03-22T11:37:00;98616.53;;;19.02;100.00
64080;BME280;51042;49.696;10.808;2024-03-22T11:39:26;98610.16;;;19.16;100.00
64080;BME280;51042;49.696;10.808;2024-03-22T11:41:51;98608.13;;;18.77;100.00
64080;BME280;51042;49.696;10.808;2024-03-22T11:44:17;98603.84;;;18.61;100.00
64080;BME280;51042;49.696;10.808;2024-03-22T11:46:43;98609.38;;;18.41;100.00
64080;BME280;51042;49.696;10.808;2024-03-22T11:49:09;98596.91;;;18.36;100.00
64080;BME280;51042;49.696;10.808;2024-03-22T11:51:36;98596.72;;;18.40;100.00
64080;BME280;51042;49.696;10.808;2024-03-22T11:54:02;98590.72;;;18.61;100.00
64080;BME280;51042;49.696;10.808;2024-03-22T11:56:28;98592.97;;;18.98;100.00
64080;BME280;51042;49.696;10.808;2024-03-22T11:58:59;98580.16;;;19.26;100.00
64080;BME280;51042;49.696;10.808;2024-03-22T12:01:25;98586.13;;;19.19;100.00
64080;BME280;51042;49.696;10.808;2024-03-22T12:03:51;98589.97;;;18.61;100.00
64080;BME280;51042;49.696;10.808;2024-03-22T12:06:17;98583.81;;;18.22;100.00
64080;BME280;51042;49.696;10.808;2024-03-22T12:08:42;98592.13;;;18.36;100.00
64080;BME280;51042;49.696;10.808;2024-03-22T12:11:08;98583.56;;;18.55;100.00
64080;BME280;51042;49.696;10.808;2024-03-22T12:13:34;98577.81;;;18.58;100.00
64080;BME280;51042;49.696;10.808;2024-03-22T12:15:59;98565.25;;;18.48;100.00
64080;BME280;51042;49.696;10.808;2024-03-22T12:18:26;98572.34;;;18.14;100.00
64080;BME280;51042;49.696;10.808;2024-03-22T12:20:51;98562.94;;;18.12;100.00
64080;BME280;51042;49.696;10.808;2024-03-22T12:23:16;98559.19;;;17.80;100.00
64080;BME280;51042;49.696;10.808;2024-03-22T12:25:42;98562.50;;;17.99;100.00
64080;BME280;51042;49.696;10.808;2024-03-22T12:28:07;98553.72;;;18.35;100.00
64080;BME280;51042;49.696;10.808;2024-03-22T12:30:32;98549.66;;;18.36;100.00
64080;BME280;51042;49.696;10.808;2024-03-22T12:32:58;98542.38;;;18.39;100.00
64080;BME280;51042;49.696;10.808;2024-03-22T12:35:24;98533.44;;;18.90;100.00
64080;BME280;51042;49.696;10.808;2024-03-22T12:37:50;98530.94;;;19.12;100.00
64080;BME280;51042;49.696;10.808;2024-03-22T12:40:16;98516.81;;;19.15;100.00